createdAt,value
2019-04-05T00:02:10.818Z,24.60
2019-04-05T00:04:40.912Z,24.90
2019-04-05T00:07:10.857Z,23.87
2019-04-05T00:09:40.803Z,23.12
2019-04-05T00:12:10.751Z,23.25
2019-04-05T00:14:40.924Z,23.77
2019-04-05T00:17:10.870Z,24.18
2019-04-05T00:19:40.903Z,25.35
2019-04-05T00:22:10.881Z,26.00
2019-04-05T00:24:40.839Z,26.50
2019-04-05T00:27:10.824Z,25.12
2019-04-05T00:29:40.781Z,26.15
2019-04-05T00:32:10.695Z,26.15
2019-04-05T00:34:40.856Z,24.23
2019-04-05T00:37:10.968Z,26.45
2019-04-05T00:39:40.923Z,26.62
2019-04-05T00:42:10.886Z,26.95
2019-04-05T00:44:40.831Z,27.05
2019-04-05T00:47:10.798Z,28.80
2019-04-05T00:49:40.745Z,27.98
2019-04-05T00:52:10.699Z,27.80
2019-04-05T00:54:40.635Z,29.25
2019-04-05T00:57:11.446Z,27.93
2019-04-05T00:59:41.420Z,26.50
2019-04-05T01:02:11.436Z,25.62
2019-04-05T01:04:41.463Z,27.85
2019-04-05T01:07:11.557Z,28.25
2019-04-05T01:09:41.611Z,28.95
2019-04-05T01:12:12.590Z,30.60
2019-04-05T01:14:42.956Z,32.00
2019-04-05T01:17:24.350Z,30.82
2019-04-05T01:19:46.572Z,29.90
2019-04-05T01:22:17.555Z,29.98
2019-04-05T01:24:47.827Z,29.02
2019-04-05T01:27:18.409Z,26.57
2019-04-05T01:29:48.478Z,25.57
2019-04-05T01:32:18.419Z,25.65
2019-04-05T01:34:48.371Z,24.77
2019-04-05T01:37:18.348Z,24.43
2019-04-05T01:39:48.300Z,24.72
2019-04-05T01:42:18.499Z,24.20
2019-04-05T01:44:51.686Z,23.67
2019-04-05T01:47:20.520Z,23.12
2019-04-05T01:49:53.290Z,23.38
2019-04-05T01:52:23.334Z,23.10
2019-04-05T01:54:55.687Z,22.77
2019-04-05T01:57:25.749Z,23.02
2019-04-05T01:59:55.805Z,23.62
2019-04-05T02:02:25.823Z,22.65
2019-04-05T02:04:58.743Z,22.25
2019-04-05T02:07:29.128Z,22.40
2019-04-05T02:09:59.223Z,22.25
2019-04-05T02:12:29.262Z,22.20
2019-04-05T02:14:59.283Z,23.67
2019-04-05T02:17:29.280Z,23.22
2019-04-05T02:19:59.467Z,24.70
2019-04-05T02:22:29.500Z,24.32
2019-04-05T02:24:59.583Z,25.50
2019-04-05T02:27:29.707Z,25.45
2019-04-05T02:29:59.664Z,24.95
2019-04-05T02:32:29.624Z,25.23
2019-04-05T02:34:59.674Z,25.00
2019-04-05T02:37:29.611Z,25.65
2019-04-05T02:39:59.584Z,27.65
2019-04-05T02:42:30.472Z,27.00
2019-04-05T02:45:00.801Z,26.57
2019-04-05T02:47:31.968Z,27.70
2019-04-05T02:50:02.185Z,28.57
2019-04-05T02:52:33.792Z,28.92
2019-04-05T02:55:05.828Z,29.45
2019-04-05T02:57:36.208Z,30.80
2019-04-05T03:00:06.535Z,30.95
2019-04-05T03:02:37.170Z,31.73
2019-04-05T03:05:07.347Z,31.40
2019-04-05T03:07:37.611Z,32.38
2019-04-05T03:10:07.855Z,31.42
2019-04-05T03:12:38.236Z,33.02
2019-04-05T03:15:08.831Z,33.15
2019-04-05T03:17:39.411Z,34.25
2019-04-05T03:20:09.678Z,32.10
2019-04-05T03:22:39.868Z,30.62
2019-04-05T03:25:09.926Z,28.10
2019-04-05T03:27:40.104Z,28.20
2019-04-05T03:30:10.393Z,26.77
2019-04-05T03:32:40.763Z,27.48
2019-04-05T03:35:11.138Z,28.47
2019-04-05T03:37:41.335Z,28.98
2019-04-05T03:40:11.732Z,29.63
2019-04-05T03:42:43.363Z,30.85
2019-04-05T03:45:13.492Z,30.32
2019-04-05T03:47:43.613Z,29.90
2019-04-05T03:50:13.568Z,28.62
2019-04-05T03:52:43.903Z,26.35
2019-04-05T03:55:13.958Z,26.77
2019-04-05T03:57:44.848Z,26.65
2019-04-05T04:00:14.935Z,27.67
2019-04-05T04:02:45.207Z,26.77
2019-04-05T04:05:15.279Z,26.00
2019-04-05T04:07:45.358Z,25.55
2019-04-05T04:10:17.829Z,24.43
2019-04-05T04:12:47.956Z,25.20
2019-04-05T04:15:18.148Z,25.02
2019-04-05T04:17:48.660Z,24.55
2019-04-05T04:20:21.677Z,25.50
2019-04-05T04:22:52.083Z,26.48
2019-04-05T04:25:22.278Z,26.07
2019-04-05T04:27:52.563Z,26.52
2019-04-05T04:30:23.164Z,27.90
2019-04-05T04:32:53.456Z,28.40
2019-04-05T04:35:23.400Z,30.92
2019-04-05T04:37:53.692Z,29.15
2019-04-05T04:40:23.622Z,30.52
2019-04-05T04:42:53.603Z,33.20
2019-04-05T04:45:23.863Z,28.85
2019-04-05T04:47:54.270Z,30.10
2019-04-05T04:50:24.614Z,30.57
2019-04-05T04:52:56.366Z,30.55
2019-04-05T04:55:26.530Z,32.38
2019-04-05T04:57:56.959Z,32.05
2019-04-05T05:00:27.915Z,31.37
2019-04-05T05:02:58.187Z,32.38
2019-04-05T05:05:29.870Z,32.30
2019-04-05T05:08:00.255Z,30.48
2019-04-05T05:10:30.530Z,30.05
2019-04-05T05:13:00.552Z,30.85
2019-04-05T05:15:31.241Z,30.68
2019-04-05T05:18:01.350Z,30.32
2019-04-05T05:20:31.578Z,28.85
2019-04-05T05:23:02.042Z,30.20
2019-04-05T05:25:32.293Z,29.52
2019-04-05T05:28:02.477Z,29.92
2019-04-05T05:30:32.819Z,29.90
2019-04-05T05:33:02.826Z,29.25
2019-04-05T05:35:33.225Z,29.85
2019-04-05T05:38:03.710Z,29.07
2019-04-05T05:40:35.171Z,29.52
2019-04-05T05:43:05.562Z,30.15
2019-04-05T05:45:35.555Z,30.27
2019-04-05T05:48:05.525Z,29.57
2019-04-05T05:50:35.812Z,29.55
2019-04-05T05:53:05.763Z,29.98
2019-04-05T05:55:35.726Z,28.80
2019-04-05T05:58:05.811Z,29.35
2019-04-05T06:00:35.786Z,29.18
2019-04-05T06:03:06.435Z,28.87
2019-04-05T06:05:36.693Z,28.83
2019-04-05T06:08:06.807Z,30.52
2019-04-05T06:10:36.734Z,30.57
2019-04-05T06:13:07.717Z,30.40
2019-04-05T06:15:37.879Z,29.35
2019-04-05T06:18:11.920Z,31.17
2019-04-05T06:20:39.512Z,29.92
2019-04-05T06:23:09.496Z,29.85
2019-04-05T06:25:39.525Z,30.17
2019-04-05T06:28:09.509Z,30.45
2019-04-05T06:30:40.132Z,29.72
2019-04-05T06:33:10.203Z,28.73
2019-04-05T06:35:40.220Z,27.75
2019-04-05T06:38:10.237Z,29.12
2019-04-05T06:40:41.349Z,27.70
2019-04-05T06:43:11.620Z,27.37
2019-04-05T06:45:41.626Z,45.10
2019-04-05T06:48:19.181Z,27.67
2019-04-05T06:50:43.470Z,27.25
2019-04-05T06:53:13.442Z,24.15
2019-04-05T06:55:43.474Z,25.20
2019-04-05T06:58:19.662Z,22.60
2019-04-05T07:00:56.464Z,29.55
2019-04-05T07:03:15.935Z,26.30
2019-04-05T07:05:46.014Z,26.07
2019-04-05T07:08:18.378Z,25.05
2019-04-05T07:10:47.660Z,23.92
2019-04-05T07:13:17.615Z,23.67
2019-04-05T07:15:47.589Z,24.80
2019-04-05T07:18:17.765Z,24.20
2019-04-05T07:20:47.904Z,21.68
2019-04-05T07:23:17.842Z,22.20
2019-04-05T07:25:47.820Z,23.32
2019-04-05T07:28:17.796Z,23.00
2019-04-05T07:30:47.901Z,21.85
2019-04-05T07:33:17.863Z,21.17
2019-04-05T07:35:47.987Z,32.58
2019-04-05T07:38:18.048Z,22.87
2019-04-05T07:40:48.062Z,21.87
2019-04-05T07:43:18.048Z,20.70
2019-04-05T07:45:48.005Z,21.30
2019-04-05T07:48:17.949Z,22.17
2019-04-05T07:50:48.083Z,21.85
2019-04-05T07:53:18.067Z,21.52
2019-04-05T07:55:48.081Z,20.95
2019-04-05T07:58:18.297Z,19.92
2019-04-05T08:00:53.677Z,19.67
2019-04-05T08:03:25.374Z,25.27
2019-04-05T08:05:55.602Z,17.77
2019-04-05T08:08:40.860Z,21.82
2019-04-05T08:11:11.255Z,15.63
2019-04-05T08:13:43.930Z,15.48
2019-04-05T08:16:15.260Z,15.65
2019-04-05T08:18:57.078Z,16.10
2019-04-05T08:21:18.010Z,16.02
2019-04-05T08:23:48.069Z,15.35
2019-04-05T08:26:18.005Z,15.15
2019-04-05T08:28:47.949Z,15.35
2019-04-05T08:31:17.912Z,15.43
2019-04-05T08:33:47.940Z,15.13
2019-04-05T08:36:17.916Z,15.53
2019-04-05T08:38:47.850Z,18.35
2019-04-05T08:41:17.803Z,15.08
2019-04-05T08:43:47.789Z,17.27
2019-04-05T08:46:17.801Z,14.90
2019-04-05T08:48:47.751Z,15.40
2019-04-05T08:51:17.710Z,15.40
2019-04-05T08:53:47.668Z,14.90
2019-04-05T08:56:18.676Z,16.25
2019-04-05T08:58:48.622Z,14.40
2019-04-05T09:01:18.671Z,17.87
2019-04-05T09:03:50.581Z,15.18
2019-04-05T09:06:20.619Z,14.73
2019-04-05T09:08:50.722Z,14.83
2019-04-05T09:11:20.825Z,15.10
2019-04-05T09:13:50.838Z,14.73
2019-04-05T09:16:20.894Z,15.00
2019-04-05T09:18:50.843Z,14.58
2019-04-05T09:21:20.780Z,14.50
2019-04-05T09:23:50.749Z,13.65
2019-04-05T09:26:20.755Z,13.72
2019-04-05T09:28:50.734Z,13.13
2019-04-05T09:31:20.687Z,14.75
2019-04-05T09:33:50.783Z,12.70
2019-04-05T09:36:20.800Z,12.85
2019-04-05T09:38:50.769Z,13.30
2019-04-05T09:41:20.722Z,12.10
2019-04-05T09:43:50.732Z,12.30
2019-04-05T09:46:20.808Z,11.28
2019-04-05T09:48:50.828Z,11.50
2019-04-05T09:51:20.847Z,11.03
2019-04-05T09:53:50.931Z,11.12
2019-04-05T09:56:20.911Z,11.53
2019-04-05T09:58:50.953Z,11.48
2019-04-05T10:01:20.957Z,12.07
2019-04-05T10:03:51.759Z,11.53
2019-04-05T10:06:21.703Z,11.28
2019-04-05T10:08:51.659Z,11.05
2019-04-05T10:11:21.303Z,11.67
2019-04-05T10:13:51.286Z,11.10
2019-04-05T10:16:21.365Z,11.50
2019-04-05T10:18:51.584Z,11.63
2019-04-05T10:21:21.451Z,11.07
2019-04-05T10:23:51.456Z,11.63
2019-04-05T10:26:21.230Z,11.40
2019-04-05T10:28:50.940Z,11.40
2019-04-05T10:31:20.573Z,11.63
2019-04-05T10:33:50.234Z,11.40
2019-04-05T10:36:20.210Z,11.10
2019-04-05T10:38:50.009Z,11.03
2019-04-05T10:41:19.650Z,11.27
2019-04-05T10:43:49.410Z,10.27
2019-04-05T10:46:19.188Z,11.23
2019-04-05T10:48:48.841Z,10.50
2019-04-05T10:51:18.555Z,8.90
2019-04-05T10:53:48.528Z,9.77
2019-04-05T10:56:18.259Z,9.83
2019-04-05T10:58:47.911Z,8.90
2019-04-05T11:01:17.545Z,8.57
2019-04-05T11:03:47.427Z,8.43
2019-04-05T11:06:17.934Z,9.43
2019-04-05T11:08:47.779Z,9.17
2019-04-05T11:11:17.408Z,8.97
2019-04-05T11:13:47.062Z,8.57
2019-04-05T11:16:16.749Z,8.60
2019-04-05T11:18:46.435Z,8.30
2019-04-05T11:21:18.233Z,8.47
2019-04-05T11:23:47.541Z,8.63
2019-04-05T11:26:17.296Z,8.10
2019-04-05T11:28:47.166Z,8.07
2019-04-05T11:31:16.905Z,7.77
2019-04-05T11:33:46.619Z,8.10
2019-04-05T11:36:16.758Z,9.13
2019-04-05T11:38:49.907Z,7.50
2019-04-05T11:41:19.754Z,7.93
2019-04-05T11:43:51.235Z,7.10
2019-04-05T11:46:21.165Z,7.87
2019-04-05T11:48:51.170Z,8.13
2019-04-05T11:51:20.940Z,7.80
2019-04-05T11:53:50.615Z,7.83
2019-04-05T11:56:20.574Z,8.57
2019-04-05T11:58:51.066Z,8.27
2019-04-05T12:01:23.629Z,8.90
2019-04-05T12:03:54.626Z,8.53
2019-04-05T12:06:24.308Z,9.10
2019-04-05T12:08:54.409Z,8.43
2019-04-05T12:11:24.127Z,7.87
2019-04-05T12:13:53.758Z,7.53
2019-04-05T12:16:23.602Z,8.33
2019-04-05T12:18:53.324Z,19.37
2019-04-05T12:21:23.207Z,8.83
2019-04-05T12:23:53.011Z,7.90
2019-04-05T12:26:22.846Z,8.57
2019-04-05T12:28:53.664Z,8.10
2019-04-05T12:31:24.475Z,8.13
2019-04-05T12:33:54.166Z,8.17
2019-04-05T12:36:24.012Z,8.23
2019-04-05T12:38:54.325Z,7.83
2019-04-05T12:41:24.239Z,7.50
2019-04-05T12:43:53.955Z,6.80
2019-04-05T12:46:23.616Z,7.17
2019-04-05T12:48:53.363Z,7.30
2019-04-05T12:51:23.168Z,8.13
2019-04-05T12:53:56.486Z,7.77
2019-04-05T12:56:26.561Z,8.07
2019-04-05T12:58:56.708Z,7.67
2019-04-05T13:01:26.881Z,8.33
2019-04-05T13:03:58.787Z,8.87
2019-04-05T13:06:28.599Z,8.90
2019-04-05T13:08:58.713Z,8.77
2019-04-05T13:11:28.456Z,8.40
2019-04-05T13:13:58.237Z,7.73
2019-04-05T13:16:28.026Z,8.27
2019-04-05T13:19:00.441Z,10.17
2019-04-05T13:21:32.122Z,8.87
2019-04-05T13:24:03.909Z,19.83
2019-04-05T13:26:32.466Z,8.50
2019-04-05T13:29:02.091Z,9.80
2019-04-05T13:31:31.793Z,8.67
2019-04-05T13:34:01.452Z,6.80
2019-04-05T13:36:31.430Z,6.33
2019-04-05T13:39:01.178Z,7.23
2019-04-05T13:41:32.730Z,7.40
2019-04-05T13:44:02.574Z,7.77
2019-04-05T13:46:32.399Z,7.10
2019-04-05T13:49:02.163Z,7.30
2019-04-05T13:51:32.153Z,7.30
2019-04-05T13:54:02.202Z,7.40
2019-04-05T13:56:31.873Z,6.00
2019-04-05T13:59:01.598Z,5.73
2019-04-05T14:01:32.159Z,5.53
2019-04-05T14:04:02.127Z,5.50
2019-04-05T14:06:31.747Z,5.90
2019-04-05T14:09:02.412Z,5.07
2019-04-05T14:11:33.237Z,4.73
2019-04-05T14:14:03.013Z,4.70
2019-04-05T14:16:32.915Z,4.50
2019-04-05T14:19:03.915Z,4.70
2019-04-05T14:21:40.189Z,5.77
2019-04-05T14:24:05.284Z,6.73
2019-04-05T14:26:35.158Z,6.77
2019-04-05T14:29:05.175Z,6.53
2019-04-05T14:31:34.969Z,6.50
2019-04-05T14:34:04.826Z,6.77
2019-04-05T14:36:34.570Z,5.43
2019-04-05T14:39:07.364Z,6.27
2019-04-05T14:41:37.130Z,6.07
2019-04-05T14:44:06.838Z,5.53
2019-04-05T14:46:38.489Z,5.97
2019-04-05T14:49:07.857Z,5.60
2019-04-05T14:51:37.483Z,5.60
2019-04-05T14:54:09.850Z,5.50
2019-04-05T14:56:38.523Z,5.60
2019-04-05T14:59:08.415Z,5.80
2019-04-05T15:01:38.430Z,6.10
2019-04-05T15:04:08.075Z,6.40
2019-04-05T15:06:40.758Z,6.70
2019-04-05T15:09:11.402Z,7.43
2019-04-05T15:11:41.379Z,7.53
2019-04-05T15:14:11.429Z,7.47
2019-04-05T15:16:41.570Z,9.88
2019-04-05T15:19:11.574Z,8.55
2019-04-05T15:21:41.523Z,7.78
2019-04-05T15:24:15.988Z,8.83
2019-04-05T15:26:44.294Z,7.95
2019-04-05T15:29:14.297Z,9.28
2019-04-05T15:31:44.438Z,7.20
2019-04-05T15:34:14.126Z,6.47
2019-04-05T15:36:44.141Z,6.62
2019-04-05T15:39:14.092Z,6.90
2019-04-05T15:41:44.046Z,6.33
2019-04-05T15:44:13.346Z,10.97
2019-04-05T15:46:43.228Z,21.23
2019-04-05T15:49:13.239Z,8.83
2019-04-05T15:51:42.859Z,7.03
2019-04-05T15:54:12.384Z,8.45
2019-04-05T15:56:42.319Z,7.42
2019-04-05T15:59:12.323Z,7.15
2019-04-05T16:01:42.318Z,6.58
2019-04-05T16:04:12.019Z,7.00
2019-04-05T16:06:41.911Z,6.60
2019-04-05T16:09:14.078Z,7.22
2019-04-05T16:11:43.977Z,7.87
2019-04-05T16:14:13.934Z,7.05
2019-04-05T16:16:43.984Z,7.62
2019-04-05T16:19:14.336Z,7.72
2019-04-05T16:21:44.319Z,7.33
2019-04-05T16:24:14.300Z,7.03
2019-04-05T16:26:44.263Z,7.25
2019-04-05T16:29:14.342Z,6.75
2019-04-05T16:31:44.423Z,7.05
2019-04-05T16:34:14.617Z,6.60
2019-04-05T16:36:44.209Z,8.55
2019-04-05T16:39:15.399Z,11.90
2019-04-05T16:41:45.272Z,18.30
2019-04-05T16:44:15.255Z,15.15
2019-04-05T16:46:45.237Z,10.05
2019-04-05T16:49:15.266Z,9.75
2019-04-05T16:51:45.374Z,8.13
2019-04-05T16:54:16.312Z,9.18
2019-04-05T16:56:45.959Z,9.70
2019-04-05T16:59:15.961Z,9.53
2019-04-05T17:01:45.923Z,10.80
2019-04-05T17:04:15.894Z,7.72
2019-04-05T17:06:45.880Z,8.95
2019-04-05T17:09:16.295Z,10.25
2019-04-05T17:11:46.245Z,9.45
2019-04-05T17:14:16.402Z,10.00
2019-04-05T17:16:46.375Z,8.73
2019-04-05T17:19:16.019Z,9.73
2019-04-05T17:21:45.950Z,9.35
2019-04-05T17:24:16.052Z,12.53
2019-04-05T17:26:46.405Z,12.37
2019-04-05T17:29:16.406Z,12.73
2019-04-05T17:31:46.516Z,12.73
2019-04-05T17:34:16.463Z,12.07
2019-04-05T17:36:46.393Z,12.68
2019-04-05T17:39:16.441Z,12.85
2019-04-05T17:41:46.766Z,14.63
2019-04-05T17:44:16.823Z,14.73
2019-04-05T17:46:47.460Z,19.48
2019-04-05T17:49:17.480Z,17.77
2019-04-05T17:51:47.439Z,15.45
2019-04-05T17:54:17.575Z,19.27
2019-04-05T17:56:47.712Z,15.13
2019-04-05T17:59:18.309Z,13.80
2019-04-05T18:01:48.324Z,14.20
2019-04-05T18:04:18.850Z,12.65
2019-04-05T18:06:49.059Z,12.98
2019-04-05T18:09:19.091Z,12.88
2019-04-05T18:11:49.981Z,14.60
2019-04-05T18:14:21.136Z,15.18
2019-04-05T18:16:51.181Z,14.45
2019-04-05T18:19:21.679Z,15.63
2019-04-05T18:21:51.678Z,15.30
2019-04-05T18:24:21.716Z,15.98
2019-04-05T18:26:51.711Z,15.35
2019-04-05T18:29:21.787Z,16.15
2019-04-05T18:31:51.789Z,15.80
2019-04-05T18:34:21.756Z,16.10
2019-04-05T18:36:51.867Z,16.50
2019-04-05T18:39:21.892Z,15.85
2019-04-05T18:41:51.901Z,16.20
2019-04-05T18:44:21.879Z,16.48
2019-04-05T18:46:51.837Z,15.88
2019-04-05T18:49:21.817Z,16.50
2019-04-05T18:51:51.967Z,19.00
2019-04-05T18:54:22.029Z,18.55
2019-04-05T18:56:51.993Z,19.50
2019-04-05T18:59:21.945Z,20.10
2019-04-05T19:01:51.879Z,18.90
2019-04-05T19:04:21.841Z,18.60
2019-04-05T19:06:51.816Z,18.55
2019-04-05T19:09:21.754Z,19.45
2019-04-05T19:11:52.612Z,18.20
2019-04-05T19:14:22.579Z,18.73
2019-04-05T19:16:52.534Z,19.00
2019-04-05T19:19:22.550Z,18.62
2019-04-05T19:21:52.594Z,20.97
2019-04-05T19:24:22.606Z,21.77
2019-04-05T19:26:52.681Z,25.20
2019-04-05T19:29:22.628Z,24.70
2019-04-05T19:49:34.194Z,22.73
2019-04-05T19:52:04.246Z,23.55
2019-04-05T19:54:34.189Z,23.27
2019-04-05T19:57:04.230Z,23.60
2019-04-05T19:59:34.690Z,22.05
2019-04-05T20:02:04.890Z,21.37
2019-04-05T20:04:34.887Z,19.55
2019-04-05T20:07:12.810Z,19.25
2019-04-05T20:09:42.765Z,19.12
2019-04-05T20:12:13.724Z,19.15
2019-04-05T20:14:43.758Z,18.52
2019-04-05T20:17:13.728Z,19.25
2019-04-05T20:19:43.739Z,27.87
2019-04-05T20:22:15.439Z,21.50
2019-04-05T20:24:45.390Z,21.07
2019-04-05T20:27:15.393Z,22.73
2019-04-05T20:29:45.381Z,24.63
2019-04-05T20:32:15.388Z,24.92
2019-04-05T20:34:45.358Z,24.35
2019-04-05T20:37:15.379Z,25.43
2019-04-05T20:39:45.334Z,25.20
2019-04-05T20:42:15.314Z,26.40
2019-04-05T20:44:45.288Z,25.12
2019-04-05T20:47:15.242Z,26.80
2019-04-05T20:49:45.215Z,28.60
2019-04-05T20:52:15.247Z,26.05
2019-04-05T20:54:46.238Z,26.20
2019-04-05T20:57:16.105Z,27.55
2019-04-05T20:59:46.134Z,30.95
2019-04-05T21:02:16.157Z,29.20
2019-04-05T21:04:46.153Z,27.62
2019-04-05T21:07:15.780Z,26.45
2019-04-05T21:09:45.366Z,25.92
2019-04-05T21:12:15.018Z,25.95
2019-04-05T21:14:44.542Z,23.80
2019-04-05T21:17:14.409Z,26.50
2019-04-05T21:19:44.098Z,24.02
2019-04-05T21:22:13.590Z,25.75
2019-04-05T21:24:43.823Z,24.32
2019-04-05T21:27:13.427Z,24.63
2019-04-05T21:29:43.286Z,23.75
2019-04-05T21:32:13.323Z,24.27
2019-04-05T21:34:42.951Z,26.12
2019-04-05T21:37:12.494Z,28.32
2019-04-05T21:39:42.362Z,23.45
2019-04-05T21:42:12.303Z,26.93
2019-04-05T21:44:42.721Z,26.65
2019-04-05T21:47:12.692Z,25.60
2019-04-05T21:49:42.349Z,23.60
2019-04-05T21:52:11.951Z,23.18
2019-04-05T21:54:47.503Z,29.63
2019-04-05T21:57:13.132Z,27.15
2019-04-05T21:59:42.788Z,23.67
2019-04-05T22:02:12.520Z,24.40
2019-04-05T22:04:42.137Z,24.07
2019-04-05T22:07:11.701Z,25.12
2019-04-05T22:09:41.294Z,25.97
2019-04-05T22:12:11.167Z,24.37
2019-04-05T22:14:42.025Z,26.07
2019-04-05T22:17:11.762Z,24.90
2019-04-05T22:19:41.699Z,24.90
2019-04-05T22:22:11.404Z,23.52
2019-04-05T22:24:40.951Z,24.02
2019-04-05T22:27:10.529Z,24.82
2019-04-05T22:29:40.423Z,24.30
2019-04-05T22:32:11.627Z,24.70
2019-04-05T22:34:41.405Z,24.32
2019-04-05T22:37:11.098Z,24.35
2019-04-05T22:39:41.020Z,25.20
2019-04-05T22:42:11.237Z,24.85
2019-04-05T22:44:41.667Z,24.15
2019-04-05T22:47:11.720Z,23.98
2019-04-05T22:49:41.695Z,23.25
2019-04-05T22:52:11.664Z,25.02
2019-04-05T22:54:41.617Z,25.43
2019-04-05T22:57:11.642Z,26.12
2019-04-05T22:59:41.569Z,32.55
2019-04-05T23:02:11.550Z,28.60
2019-04-05T23:04:41.532Z,32.95
2019-04-05T23:07:12.766Z,32.63
2019-04-05T23:09:42.839Z,30.92
2019-04-05T23:12:12.816Z,27.22
2019-04-05T23:14:42.770Z,24.25
2019-04-05T23:17:13.574Z,23.98
2019-04-05T23:19:43.464Z,24.07
2019-04-05T23:22:13.100Z,23.95
2019-04-05T23:24:42.998Z,23.73
2019-04-05T23:27:13.011Z,23.70
2019-04-05T23:29:42.667Z,25.02
2019-04-05T23:32:12.301Z,24.77
2019-04-05T23:34:42.184Z,25.48
2019-04-05T23:37:11.832Z,24.82
2019-04-05T23:39:41.692Z,23.92
2019-04-05T23:42:11.361Z,24.07
2019-04-05T23:44:41.288Z,25.12
2019-04-05T23:47:11.262Z,24.63
2019-04-05T23:49:42.239Z,25.00
2019-04-05T23:52:11.865Z,24.07
2019-04-05T23:54:41.782Z,24.60
2019-04-05T23:57:11.729Z,30.10
2019-04-05T23:59:41.736Z,27.40
